Time;durP1;ratioP1;P1;durP2;ratioP2;P2;SDS_P1;SDS_P2;PMS_P1;PMS_P2;Temp;Humidity;BMP_temperature;BMP_pressure;BME280_temperature;BME280_humidity;BME280_pressure;Samples;Min_cycle;Max_cycle;Signal;HPM_P1;HPM_P2
2021/10/18 00:01:25;;;;;;;;;;;16.10;46.80;;;;;;4375091;32;19970;-37
2021/10/18 00:03:51;;;;;;;;;;;16.10;46.90;;;;;;4374834;32;19962;-37
2021/10/18 00:06:17;;;;;;;;;;;16.10;46.90;;;;;;4374455;32;20001;-37
2021/10/18 00:08:44;;;;;;;;;;;16.10;47.00;;;;;;4374442;32;19970;-37
2021/10/18 00:11:10;;;;;;;;;;;16.10;46.90;;;;;;4374385;32;19972;-37
2021/10/18 00:13:36;;;;;;;;;;;16.10;47.00;;;;;;4374120;32;20390;-37
2021/10/18 00:16:02;;;;;;;;;;;16.10;47.10;;;;;;4374136;32;20001;-38
2021/10/18 00:18:29;;;;;;;;;;;16.00;47.40;;;;;;4374423;32;19958;-36
2021/10/18 00:20:55;;;;;;;;;;;16.00;47.80;;;;;;4374611;32;19961;-37
2021/10/18 00:23:21;;;;;;;;;;;16.00;48.00;;;;;;4374345;32;20395;-38
2021/10/18 00:25:47;;;;;;;;;;;15.90;48.00;;;;;;4374128;32;19983;-37
2021/10/18 00:28:14;;;;;;;;;;;15.90;48.20;;;;;;4374566;32;19982;-38
2021/10/18 00:30:40;;;;;;;;;;;15.80;48.20;;;;;;4373889;32;19958;-37
2021/10/18 00:33:06;;;;;;;;;;;15.70;48.30;;;;;;4373944;32;20044;-38
2021/10/18 00:35:32;;;;;;;;;;;15.70;48.60;;;;;;4374430;32;20050;-37
2021/10/18 00:37:58;;;;;;;;;;;15.60;49.00;;;;;;4373598;32;20065;-37
2021/10/18 00:40:25;;;;;;;;;;;15.50;50.00;;;;;;4360067;32;20419;-37
2021/10/18 00:42:52;;;;;;;;;;;15.50;50.60;;;;;;4374471;32;20505;-36
2021/10/18 00:45:19;;;;;;;;;;;15.30;51.40;;;;;;4371837;32;20013;-36
2021/10/18 00:47:45;;;;;;;;;;;15.30;51.80;;;;;;4358853;32;19969;-37
2021/10/18 00:50:12;;;;;;;;;;;15.20;51.90;;;;;;4358894;32;19972;-36
2021/10/18 00:52:38;;;;;;;;;;;15.20;51.90;;;;;;4358890;32;19979;-37
2021/10/18 00:55:05;;;;;;;;;;;15.10;52.40;;;;;;4332473;32;19995;-37
2021/10/18 00:57:31;;;;;;;;;;;15.10;52.60;;;;;;4345615;32;19967;-37
2021/10/18 00:59:57;;;;;;;;;;;15.00;52.80;;;;;;4345141;32;19981;-38
2021/10/18 01:02:24;;;;;;;;;;;15.00;53.10;;;;;;4345047;32;19969;-37
2021/10/18 01:04:50;;;;;;;;;;;15.10;53.20;;;;;;4359014;32;20054;-37
2021/10/18 01:07:16;;;;;;;;;;;15.00;53.40;;;;;;4332249;32;20390;-37
2021/10/18 01:09:42;;;;;;;;;;;15.10;53.60;;;;;;4345303;32;19982;-37
2021/10/18 01:12:08;;;;;;;;;;;15.00;53.20;;;;;;4332447;32;20088;-37
2021/10/18 01:14:35;;;;;;;;;;;15.00;53.10;;;;;;4358834;32;20344;-36
2021/10/18 01:17:01;;;;;;;;;;;15.00;53.30;;;;;;4358918;32;20404;-37
2021/10/18 01:19:27;;;;;;;;;;;14.90;53.40;;;;;;4358817;32;20083;-37
2021/10/18 01:22:00;;;;;;;;;;;14.90;53.60;;;;;;4358582;32;20493;-37
2021/10/18 01:24:26;;;;;;;;;;;14.90;53.70;;;;;;4359010;32;19978;-37
2021/10/18 01:26:52;;;;;;;;;;;14.80;53.70;;;;;;4358969;32;20053;-37
2021/10/18 01:29:18;;;;;;;;;;;14.80;53.60;;;;;;4358727;32;20047;-38
2021/10/18 01:31:44;;;;;;;;;;;14.70;53.70;;;;;;4358386;32;20394;-37
2021/10/18 01:34:10;;;;;;;;;;;14.70;54.00;;;;;;4358527;32;19969;-37
2021/10/18 01:36:37;;;;;;;;;;;14.70;54.60;;;;;;4358770;32;19998;-37
2021/10/18 01:39:03;;;;;;;;;;;14.70;53.80;;;;;;4344787;32;20426;-37
2021/10/18 01:41:29;;;;;;;;;;;14.60;53.70;;;;;;4358567;32;19965;-37
2021/10/18 01:43:55;;;;;;;;;;;14.60;53.90;;;;;;4358277;32;19996;-37
2021/10/18 01:46:22;;;;;;;;;;;14.60;54.00;;;;;;4367201;32;20428;-37
2021/10/18 01:48:48;;;;;;;;;;;14.60;54.10;;;;;;4375619;32;20001;-37
2021/10/18 01:51:14;;;;;;;;;;;14.70;54.10;;;;;;4362518;32;19962;-37
2021/10/18 01:53:40;;;;;;;;;;;14.70;54.10;;;;;;4376200;32;20071;-37
2021/10/18 01:56:07;;;;;;;;;;;14.80;54.10;;;;;;4376720;32;19981;-37
2021/10/18 01:58:33;;;;;;;;;;;14.80;53.90;;;;;;4376605;32;19964;-37
2021/10/18 02:00:59;;;;;;;;;;;14.90;54.00;;;;;;4376238;32;19996;-37
2021/10/18 02:03:26;;;;;;;;;;;14.90;53.80;;;;;;4376450;32;19990;-37
2021/10/18 02:05:52;;;;;;;;;;;14.90;53.70;;;;;;4376230;32;20078;-37
2021/10/18 02:08:18;;;;;;;;;;;14.90;53.70;;;;;;4376427;32;20433;-37
2021/10/18 02:10:44;;;;;;;;;;;14.90;53.60;;;;;;4375857;32;20427;-38
2021/10/18 02:13:10;;;;;;;;;;;14.90;53.60;;;;;;4375962;32;19966;-37
2021/10/18 02:15:37;;;;;;;;;;;14.90;53.60;;;;;;4376349;32;19975;-37
2021/10/18 02:18:03;;;;;;;;;;;14.90;53.60;;;;;;4376126;32;20458;-37
2021/10/18 02:20:29;;;;;;;;;;;14.90;53.60;;;;;;4375699;32;19966;-38
2021/10/18 02:22:56;;;;;;;;;;;15.00;53.50;;;;;;4359917;32;19958;-38
2021/10/18 02:25:22;;;;;;;;;;;15.10;53.40;;;;;;4361005;32;20448;-36
2021/10/18 02:27:48;;;;;;;;;;;15.10;53.40;;;;;;4361080;32;19975;-37
2021/10/18 02:30:14;;;;;;;;;;;15.10;53.20;;;;;;4359064;32;20009;-37
2021/10/18 02:32:41;;;;;;;;;;;15.20;53.00;;;;;;4359519;32;19963;-36
2021/10/18 02:35:10;;;;;;;;;;;15.20;52.80;;;;;;4361140;32;20423;-36
2021/10/18 02:37:37;;;;;;;;;;;15.20;52.50;;;;;;4361017;32;19962;-37
2021/10/18 02:40:04;;;;;;;;;;;15.20;52.40;;;;;;4361140;32;19989;-38
2021/10/18 02:42:30;;;;;;;;;;;15.20;52.40;;;;;;4360716;32;20382;-37
2021/10/18 02:44:57;;;;;;;;;;;15.10;52.20;;;;;;4360409;32;20446;-36
2021/10/18 02:47:23;;;;;;;;;;;15.10;52.30;;;;;;4345633;32;20363;-37
2021/10/18 02:49:49;;;;;;;;;;;15.10;52.20;;;;;;4345517;32;19971;-38
2021/10/18 02:52:15;;;;;;;;;;;15.10;52.20;;;;;;4345923;32;20451;-38
2021/10/18 02:54:41;;;;;;;;;;;15.20;52.20;;;;;;4345909;32;19974;-38
2021/10/18 02:57:07;;;;;;;;;;;15.20;52.00;;;;;;4346143;32;20404;-37
2021/10/18 02:59:34;;;;;;;;;;;15.20;51.90;;;;;;4344954;32;20392;-38
2021/10/18 03:02:00;;;;;;;;;;;15.10;52.00;;;;;;4345766;32;19998;-38
2021/10/18 03:04:26;;;;;;;;;;;15.10;52.10;;;;;;4345782;33;20053;-37
2021/10/18 03:06:52;;;;;;;;;;;15.10;52.20;;;;;;4345567;32;19997;-38
2021/10/18 03:09:18;;;;;;;;;;;15.10;52.20;;;;;;4345778;32;20390;-38
2021/10/18 03:11:45;;;;;;;;;;;15.10;52.20;;;;;;4345642;32;19963;-38
2021/10/18 03:14:11;;;;;;;;;;;15.20;52.40;;;;;;4345338;32;20387;-38
2021/10/18 03:16:37;;;;;;;;;;;15.20;52.30;;;;;;4345413;32;20461;-38
2021/10/18 03:19:03;;;;;;;;;;;15.20;52.30;;;;;;4345542;32;19959;-37
2021/10/18 03:21:29;;;;;;;;;;;15.20;52.20;;;;;;4349424;32;19966;-38
2021/10/18 03:23:55;;;;;;;;;;;15.20;52.40;;;;;;4346569;32;19974;-38
2021/10/18 03:26:22;;;;;;;;;;;15.30;52.60;;;;;;4360582;32;19966;-37
2021/10/18 03:28:48;;;;;;;;;;;15.40;52.60;;;;;;4359792;32;20045;-38
2021/10/18 03:31:14;;;;;;;;;;;15.40;52.50;;;;;;4359658;32;20453;-38
2021/10/18 03:33:41;;;;;;;;;;;15.50;52.40;;;;;;4360183;32;19960;-37
2021/10/18 03:36:07;;;;;;;;;;;15.70;52.20;;;;;;4313503;33;20027;-38
2021/10/18 03:38:33;;;;;;;;;;;15.70;52.10;;;;;;4312971;33;20131;-37
2021/10/18 03:41:00;;;;;;;;;;;15.80;52.20;;;;;;4312966;33;19978;-37
2021/10/18 03:43:26;;;;;;;;;;;15.80;52.30;;;;;;4313395;33;20051;-37
2021/10/18 03:45:52;;;;;;;;;;;15.90;52.20;;;;;;4306421;33;20435;-38
2021/10/18 03:48:19;;;;;;;;;;;15.90;52.20;;;;;;4327650;33;20001;-38
2021/10/18 03:50:45;;;;;;;;;;;16.00;52.10;;;;;;4327502;33;19967;-37
2021/10/18 03:53:11;;;;;;;;;;;15.90;52.00;;;;;;4327939;33;19990;-37
2021/10/18 03:55:37;;;;;;;;;;;15.90;52.10;;;;;;4327568;33;20474;-38
2021/10/18 03:58:04;;;;;;;;;;;15.90;52.00;;;;;;4327690;33;20412;-37
2021/10/18 04:00:30;;;;;;;;;;;15.80;52.00;;;;;;4327403;33;20054;-37
2021/10/18 04:02:56;;;;;;;;;;;15.80;52.70;;;;;;4315122;33;19970;-37
2021/10/18 04:05:24;;;;;;;;;;;15.70;53.00;;;;;;4327473;33;19970;-36
2021/10/18 04:07:50;;;;;;;;;;;15.70;52.70;;;;;;4364654;32;19966;-38
2021/10/18 04:10:19;;;;;;;;;;;15.70;53.10;;;;;;4374347;32;20409;-38
2021/10/18 04:12:46;;;;;;;;;;;15.80;53.30;;;;;;4360025;32;19996;-38
2021/10/18 04:15:12;;;;;;;;;;;15.80;53.20;;;;;;4374163;32;20045;-39
2021/10/18 04:17:38;;;;;;;;;;;15.80;53.00;;;;;;4374275;32;20418;-38
2021/10/18 04:20:07;;;;;;;;;;;15.80;52.70;;;;;;4374076;32;19966;-38
2021/10/18 04:22:33;;;;;;;;;;;15.90;52.80;;;;;;4373576;32;20381;-38
2021/10/18 04:24:59;;;;;;;;;;;15.90;53.50;;;;;;4374002;32;19987;-38
2021/10/18 04:27:25;;;;;;;;;;;15.90;52.90;;;;;;4373719;32;19969;-38
2021/10/18 04:29:52;;;;;;;;;;;15.90;52.80;;;;;;4373962;32;20375;-37
2021/10/18 04:32:18;;;;;;;;;;;16.00;52.70;;;;;;4373677;32;20042;-38
2021/10/18 04:34:44;;;;;;;;;;;16.00;52.60;;;;;;4374019;32;19959;-38
2021/10/18 04:37:10;;;;;;;;;;;16.00;52.60;;;;;;4374102;32;19966;-37
2021/10/18 04:39:36;;;;;;;;;;;16.00;52.60;;;;;;4374125;32;20005;-36
2021/10/18 04:42:03;;;;;;;;;;;15.90;52.50;;;;;;4373551;32;19990;-38
2021/10/18 04:44:29;;;;;;;;;;;15.90;52.50;;;;;;4373906;32;19962;-38
2021/10/18 04:46:55;;;;;;;;;;;15.90;52.70;;;;;;4361772;32;20051;-38
2021/10/18 04:49:21;;;;;;;;;;;15.90;53.10;;;;;;4358794;32;19962;-35
2021/10/18 04:51:48;;;;;;;;;;;15.90;53.20;;;;;;4358510;32;19977;-37
2021/10/18 04:54:14;;;;;;;;;;;15.90;53.50;;;;;;4359116;32;19973;-37
2021/10/18 04:56:40;;;;;;;;;;;15.90;53.60;;;;;;4358764;32;19966;-37
2021/10/18 04:59:06;;;;;;;;;;;15.90;53.70;;;;;;4344875;32;20447;-37
2021/10/18 05:01:32;;;;;;;;;;;15.90;53.80;;;;;;4358316;32;19974;-37
2021/10/18 05:03:59;;;;;;;;;;;16.00;54.00;;;;;;4359038;32;19967;-37
2021/10/18 05:06:25;;;;;;;;;;;16.00;53.90;;;;;;4326050;33;19978;-38
2021/10/18 05:08:53;;;;;;;;;;;16.00;53.80;;;;;;4326598;33;20015;-37
2021/10/18 05:11:20;;;;;;;;;;;16.00;53.70;;;;;;4326335;33;20469;-37
2021/10/18 05:13:46;;;;;;;;;;;16.00;53.80;;;;;;4327143;33;19998;-38
2021/10/18 05:16:13;;;;;;;;;;;16.00;53.70;;;;;;4326596;33;20454;-37
2021/10/18 05:18:39;;;;;;;;;;;16.00;54.10;;;;;;4314281;33;19994;-36
2021/10/18 05:21:06;;;;;;;;;;;16.10;54.40;;;;;;4326152;33;20452;-36
2021/10/18 05:23:33;;;;;;;;;;;16.00;54.30;;;;;;4325787;33;20446;-37
2021/10/18 05:26:00;;;;;;;;;;;16.10;54.50;;;;;;4326341;33;20057;-37
2021/10/18 05:28:26;;;;;;;;;;;16.10;54.40;;;;;;4314422;33;19983;-36
2021/10/18 05:30:52;;;;;;;;;;;16.10;54.30;;;;;;4326370;33;19978;-36
2021/10/18 05:33:19;;;;;;;;;;;16.10;54.20;;;;;;4326392;33;20396;-35
2021/10/18 05:35:46;;;;;;;;;;;16.00;54.20;;;;;;4326260;33;19979;-37
2021/10/18 05:38:19;;;;;;;;;;;16.00;54.20;;;;;;4352976;32;19973;-38
2021/10/18 05:40:50;;;;;;;;;;;15.90;54.20;;;;;;4358551;32;20377;-37
2021/10/18 05:43:17;;;;;;;;;;;15.90;54.30;;;;;;4358170;32;19990;-38
2021/10/18 05:45:43;;;;;;;;;;;15.90;54.50;;;;;;4363124;32;20058;-38
2021/10/18 05:48:10;;;;;;;;;;;15.80;54.70;;;;;;4372953;32;20009;-37
2021/10/18 05:50:39;;;;;;;;;;;15.80;54.90;;;;;;4373100;32;19977;-38
2021/10/18 05:53:05;;;;;;;;;;;15.80;55.00;;;;;;4373208;32;20046;-39
2021/10/18 05:55:32;;;;;;;;;;;15.90;55.00;;;;;;4373106;32;20069;-39
2021/10/18 05:58:03;;;;;;;;;;;15.90;54.90;;;;;;4372952;32;19959;-40
2021/10/18 06:00:39;;;;;;;;;;;15.90;54.90;;;;;;4373079;32;19980;-39
2021/10/18 06:03:05;;;;;;;;;;;15.90;54.90;;;;;;4373372;32;19961;-38
2021/10/18 06:05:33;;;;;;;;;;;15.80;54.90;;;;;;4359004;32;20090;-39
2021/10/18 06:08:04;;;;;;;;;;;15.80;54.90;;;;;;4373380;32;19978;-39
2021/10/18 06:10:30;;;;;;;;;;;15.80;55.20;;;;;;4373415;32;19962;-39
2021/10/18 06:12:57;;;;;;;;;;;15.80;55.30;;;;;;4373205;32;20049;-39
2021/10/18 06:15:23;;;;;;;;;;;15.80;55.40;;;;;;4372690;32;20391;-40
2021/10/18 06:17:49;;;;;;;;;;;15.80;55.50;;;;;;4373499;32;19977;-39
2021/10/18 06:20:16;;;;;;;;;;;15.80;55.70;;;;;;4373237;32;20085;-40
2021/10/18 06:22:42;;;;;;;;;;;15.90;55.90;;;;;;4372880;32;19973;-39
2021/10/18 06:25:09;;;;;;;;;;;15.90;55.80;;;;;;4373181;32;19966;-39
2021/10/18 06:27:35;;;;;;;;;;;15.90;55.60;;;;;;4372990;32;19974;-40
2021/10/18 06:30:01;;;;;;;;;;;16.00;55.50;;;;;;4372805;32;20050;-39
2021/10/18 06:32:27;;;;;;;;;;;16.00;55.50;;;;;;4372795;32;19962;-39
2021/10/18 06:34:54;;;;;;;;;;;16.00;55.60;;;;;;4373327;32;20395;-39
2021/10/18 06:37:20;;;;;;;;;;;16.00;56.10;;;;;;4375442;32;20401;-40
2021/10/18 06:39:46;;;;;;;;;;;16.10;56.20;;;;;;4375274;32;20390;-39
2021/10/18 06:42:12;;;;;;;;;;;16.10;56.30;;;;;;4375670;32;20013;-42
2021/10/18 06:44:40;;;;;;;;;;;16.20;56.30;;;;;;4375471;32;20013;-41
2021/10/18 06:47:06;;;;;;;;;;;16.30;56.20;;;;;;4361830;32;19959;-41
2021/10/18 06:49:33;;;;;;;;;;;16.40;55.80;;;;;;4360326;32;20071;-39
2021/10/18 06:51:59;;;;;;;;;;;16.40;55.60;;;;;;4347146;32;19954;-40
2021/10/18 06:54:34;;;;;;;;;;;16.40;55.50;;;;;;4360433;32;20053;-40
2021/10/18 06:57:00;;;;;;;;;;;16.30;55.20;;;;;;4360452;32;19982;-39
2021/10/18 06:59:26;;;;;;;;;;;16.20;55.10;;;;;;4346520;32;19970;-40
2021/10/18 07:01:53;;;;;;;;;;;16.20;55.50;;;;;;4360455;32;19994;-41
2021/10/18 07:04:21;;;;;;;;;;;16.20;55.70;;;;;;4360408;32;19963;-40
2021/10/18 07:06:47;;;;;;;;;;;16.20;56.00;;;;;;4360628;32;19970;-40
2021/10/18 07:09:13;;;;;;;;;;;16.20;55.80;;;;;;4360034;32;19998;-39
2021/10/18 07:11:39;;;;;;;;;;;16.30;55.70;;;;;;4359977;32;20057;-39
2021/10/18 07:14:06;;;;;;;;;;;16.40;55.80;;;;;;4346479;32;19994;-39
2021/10/18 07:16:32;;;;;;;;;;;16.50;55.80;;;;;;4359961;32;19979;-39
2021/10/18 07:18:58;;;;;;;;;;;16.60;55.50;;;;;;4360170;32;19982;-39
2021/10/18 07:21:24;;;;;;;;;;;16.70;55.20;;;;;;4359829;32;19967;-39
2021/10/18 07:23:52;;;;;;;;;;;16.80;54.80;;;;;;4360115;32;20050;-39
2021/10/18 07:26:19;;;;;;;;;;;16.80;54.80;;;;;;4346380;32;20009;-40
2021/10/18 07:28:45;;;;;;;;;;;16.80;54.40;;;;;;4359992;32;19986;-39
2021/10/18 07:31:11;;;;;;;;;;;16.90;54.40;;;;;;4360332;32;20129;-39
2021/10/18 07:33:37;;;;;;;;;;;16.90;54.50;;;;;;4359607;32;19963;-40
2021/10/18 07:36:09;;;;;;;;;;;17.00;54.70;;;;;;4359602;32;20005;-38
2021/10/18 07:38:38;;;;;;;;;;;17.10;54.80;;;;;;4359990;32;19982;-41
2021/10/18 07:41:05;;;;;;;;;;;17.20;54.40;;;;;;4359806;32;20039;-38
2021/10/18 07:43:32;;;;;;;;;;;17.30;54.10;;;;;;4345612;32;19970;-40
2021/10/18 07:45:58;;;;;;;;;;;17.40;53.90;;;;;;4365984;32;19973;-40
2021/10/18 07:48:24;;;;;;;;;;;17.40;53.70;;;;;;4374339;32;20390;-39
2021/10/18 07:50:50;;;;;;;;;;;17.50;53.60;;;;;;4374464;32;19977;-40
2021/10/18 07:53:17;;;;;;;;;;;17.50;53.40;;;;;;4374323;32;19966;-39
2021/10/18 07:55:43;;;;;;;;;;;17.60;53.30;;;;;;4360457;32;19962;-41
2021/10/18 07:58:09;;;;;;;;;;;17.60;53.30;;;;;;4374080;32;20504;-39
2021/10/18 08:00:35;;;;;;;;;;;17.70;53.20;;;;;;4374362;32;19985;-40
2021/10/18 08:03:01;;;;;;;;;;;17.70;53.20;;;;;;4374194;32;19973;-38
2021/10/18 08:05:27;;;;;;;;;;;17.80;53.20;;;;;;4374279;32;19973;-39
2021/10/18 08:07:55;;;;;;;;;;;17.90;53.00;;;;;;4327496;33;19986;-38
2021/10/18 08:10:24;;;;;;;;;;;18.00;52.80;;;;;;4326870;33;20034;-38
2021/10/18 08:12:54;;;;;;;;;;;18.00;52.60;;;;;;4326717;33;20536;-39
2021/10/18 08:15:21;;;;;;;;;;;18.00;52.30;;;;;;4327123;33;20382;-40
2021/10/18 08:17:47;;;;;;;;;;;18.00;52.20;;;;;;4326711;33;20002;-38
2021/10/18 08:20:14;;;;;;;;;;;18.00;52.20;;;;;;4326895;33;20494;-40
2021/10/18 08:22:40;;;;;;;;;;;18.00;52.80;;;;;;4327220;33;20568;-39
2021/10/18 08:25:07;;;;;;;;;;;18.00;51.90;;;;;;4326974;33;19971;-37
2021/10/18 08:27:33;;;;;;;;;;;17.90;51.90;;;;;;4326631;33;20526;-38
2021/10/18 08:29:59;;;;;;;;;;;17.90;51.90;;;;;;4326945;33;20010;-37
2021/10/18 08:32:25;;;;;;;;;;;17.80;52.00;;;;;;4326708;33;20387;-38
2021/10/18 08:34:52;;;;;;;;;;;17.70;52.20;;;;;;4327272;33;19971;-37
2021/10/18 08:37:18;;;;;;;;;;;17.70;52.30;;;;;;4302627;33;20006;-38
2021/10/18 08:42:23;;;;;;;;;;;17.70;52.30;;;;;;4373529;32;20051;-39
2021/10/18 08:44:49;;;;;;;;;;;17.70;52.30;;;;;;4360622;32;19973;-38
2021/10/18 08:47:16;;;;;;;;;;;17.70;52.30;;;;;;4359297;32;20449;-38
2021/10/18 08:49:42;;;;;;;;;;;17.70;52.20;;;;;;4344936;32;20066;-38
2021/10/18 08:52:09;;;;;;;;;;;17.70;52.20;;;;;;4358506;32;19965;-37
2021/10/18 08:54:35;;;;;;;;;;;17.70;52.90;;;;;;4358715;32;20464;-38
2021/10/18 08:57:02;;;;;;;;;;;17.70;52.30;;;;;;4358245;32;20363;-40
2021/10/18 08:59:28;;;;;;;;;;;17.80;52.40;;;;;;4358636;32;20019;-39
2021/10/18 09:01:56;;;;;;;;;;;17.80;52.30;;;;;;4358300;32;20040;-40
2021/10/18 09:04:27;;;;;;;;;;;17.90;52.10;;;;;;4358700;32;19977;-38
2021/10/18 09:07:01;;;;;;;;;;;17.90;52.00;;;;;;4358774;32;19979;-39
2021/10/18 09:09:29;;;;;;;;;;;17.80;51.60;;;;;;4359067;32;19967;-39
2021/10/18 09:11:58;;;;;;;;;;;17.80;51.70;;;;;;4358661;32;20502;-40
2021/10/18 09:14:24;;;;;;;;;;;17.80;51.80;;;;;;4344497;32;20417;-40
2021/10/18 09:16:50;;;;;;;;;;;17.90;51.90;;;;;;4358890;32;20121;-40
2021/10/18 09:19:26;;;;;;;;;;;17.90;52.00;;;;;;4344983;32;19970;-42
2021/10/18 09:21:57;;;;;;;;;;;18.10;52.10;;;;;;4358097;32;19958;-39
2021/10/18 09:24:30;;;;;;;;;;;18.20;52.00;;;;;;4357923;32;20386;-39
2021/10/18 09:27:10;;;;;;;;;;;18.30;51.90;;;;;;4344351;32;19966;-38
2021/10/18 09:29:47;;;;;;;;;;;18.40;51.60;;;;;;4358143;32;20403;-38
2021/10/18 09:32:25;;;;;;;;;;;18.50;51.30;;;;;;4358301;32;19966;-39
2021/10/18 09:34:52;;;;;;;;;;;18.60;51.20;;;;;;4358088;32;19997;-39
2021/10/18 09:37:18;;;;;;;;;;;18.70;51.30;;;;;;4331975;32;19974;-39
2021/10/18 09:39:46;;;;;;;;;;;18.80;51.20;;;;;;4344370;32;19986;-38
2021/10/18 09:42:16;;;;;;;;;;;18.90;51.00;;;;;;4358241;32;19990;-39
2021/10/18 10:52:50;;;;;;;;;;;19.70;48.60;;;;;;4374981;32;20057;-39
2021/10/18 10:55:28;;;;;;;;;;;19.70;48.40;;;;;;4375104;32;19970;-38
2021/10/18 10:57:56;;;;;;;;;;;19.70;48.20;;;;;;4361674;32;19965;-40
2021/10/18 11:00:49;;;;;;;;;;;19.70;48.00;;;;;;4374666;32;20486;-39
2021/10/18 11:03:23;;;;;;;;;;;19.70;48.00;;;;;;4358099;32;19988;-39
2021/10/18 11:06:06;;;;;;;;;;;19.70;48.10;;;;;;4374717;32;19973;-38
2021/10/18 11:08:43;;;;;;;;;;;19.70;48.10;;;;;;4361535;32;19971;-38
2021/10/18 11:11:10;;;;;;;;;;;19.80;48.00;;;;;;4361217;32;19963;-39
2021/10/18 11:14:00;;;;;;;;;;;19.80;47.70;;;;;;4375212;32;19961;-39
2021/10/18 11:16:31;;;;;;;;;;;19.90;47.80;;;;;;4366967;32;20054;-39
2021/10/18 11:18:59;;;;;;;;;;;20.00;47.60;;;;;;4375166;32;20455;-39
2021/10/18 11:21:27;;;;;;;;;;;20.00;47.40;;;;;;4374626;32;19974;-39
2021/10/18 11:24:04;;;;;;;;;;;20.00;47.30;;;;;;4374903;32;20061;-39
2021/10/18 11:26:34;;;;;;;;;;;20.10;47.20;;;;;;4375035;32;19973;-41
2021/10/18 11:29:01;;;;;;;;;;;20.10;47.30;;;;;;4375097;32;19992;-40
2021/10/18 11:31:29;;;;;;;;;;;20.10;47.20;;;;;;4374905;32;19962;-39
2021/10/18 11:34:04;;;;;;;;;;;20.10;47.10;;;;;;4374822;32;20008;-39
2021/10/18 11:36:31;;;;;;;;;;;20.10;46.90;;;;;;4374517;32;20460;-39
2021/10/18 11:39:10;;;;;;;;;;;20.00;46.70;;;;;;4361061;32;19993;-39
2021/10/18 11:41:58;;;;;;;;;;;19.90;46.70;;;;;;4375160;32;19981;-39
2021/10/18 11:44:57;;;;;;;;;;;19.80;46.80;;;;;;4374663;32;19977;-39
2021/10/18 11:47:25;;;;;;;;;;;19.60;47.00;;;;;;4298020;33;20376;-39
2021/10/18 11:50:19;;;;;;;;;;;19.50;47.30;;;;;;4297875;33;20058;-39
2021/10/18 11:52:48;;;;;;;;;;;19.50;47.30;;;;;;4298564;33;19964;-38
2021/10/18 11:55:20;;;;;;;;;;;19.50;47.50;;;;;;4298413;33;20043;-39
2021/10/18 11:57:47;;;;;;;;;;;19.50;47.30;;;;;;4298726;33;19982;-39
2021/10/18 12:00:25;;;;;;;;;;;19.50;47.50;;;;;;4298258;33;19972;-39
2021/10/18 12:02:51;;;;;;;;;;;19.40;47.60;;;;;;4286530;33;19963;-40
2021/10/18 12:05:17;;;;;;;;;;;19.40;47.70;;;;;;4298253;33;19963;-39
2021/10/18 12:07:47;;;;;;;;;;;19.40;47.70;;;;;;4286096;33;20040;-40
2021/10/18 12:10:22;;;;;;;;;;;19.40;48.00;;;;;;4298241;33;20044;-39
2021/10/18 12:13:26;;;;;;;;;;;19.30;47.90;;;;;;4297841;33;19964;-40
2021/10/18 12:15:52;;;;;;;;;;;19.30;47.90;;;;;;4275788;33;19971;-41
2021/10/18 12:18:27;;;;;;;;;;;19.20;47.90;;;;;;4297536;33;20381;-40
2021/10/18 12:20:55;;;;;;;;;;;19.00;48.00;;;;;;4297482;33;20516;-41
2021/10/18 12:23:24;;;;;;;;;;;19.00;48.20;;;;;;4338177;32;19975;-40
2021/10/18 12:26:14;;;;;;;;;;;19.00;48.20;;;;;;4359427;32;20049;-40
2021/10/18 12:28:41;;;;;;;;;;;19.00;48.20;;;;;;4358459;32;20413;-40
2021/10/18 12:31:23;;;;;;;;;;;18.80;48.00;;;;;;4359253;32;19963;-40
2021/10/18 12:34:11;;;;;;;;;;;18.70;48.10;;;;;;4358471;32;19957;-42
2021/10/18 12:36:47;;;;;;;;;;;18.50;48.30;;;;;;4346565;32;19966;-41
2021/10/18 12:39:14;;;;;;;;;;;18.40;48.70;;;;;;4359181;32;20385;-40
2021/10/18 12:41:43;;;;;;;;;;;18.40;49.10;;;;;;4358645;32;20429;-40
2021/10/18 12:44:12;;;;;;;;;;;18.30;49.10;;;;;;4359324;32;19977;-40
2021/10/18 12:46:40;;;;;;;;;;;18.30;49.10;;;;;;4369150;32;19969;-40
2021/10/18 12:49:07;;;;;;;;;;;18.30;49.20;;;;;;4373558;32;19966;-40
2021/10/18 12:51:37;;;;;;;;;;;18.30;49.20;;;;;;4373484;32;19994;-40
2021/10/18 12:54:26;;;;;;;;;;;18.30;49.40;;;;;;4373590;32;19970;-40
2021/10/18 12:57:06;;;;;;;;;;;18.20;49.40;;;;;;4373187;32;19978;-41
2021/10/18 12:59:34;;;;;;;;;;;18.20;49.60;;;;;;4373387;32;19996;-40
2021/10/18 13:02:19;;;;;;;;;;;18.30;49.70;;;;;;4347165;32;19996;-40
2021/10/18 13:05:07;;;;;;;;;;;18.30;49.70;;;;;;4373937;32;19972;-39
2021/10/18 13:07:34;;;;;;;;;;;18.30;49.80;;;;;;4373465;32;19994;-39
2021/10/18 13:10:01;;;;;;;;;;;18.30;49.60;;;;;;4373639;32;19977;-39
2021/10/18 13:12:27;;;;;;;;;;;18.40;49.60;;;;;;4373850;32;19965;-39
2021/10/18 13:14:54;;;;;;;;;;;18.30;49.60;;;;;;4373439;32;20028;-41
2021/10/18 13:17:21;;;;;;;;;;;18.30;49.50;;;;;;4373496;32;19990;-39
2021/10/18 13:19:47;;;;;;;;;;;18.30;49.60;;;;;;4373571;32;19990;-39
2021/10/18 13:22:13;;;;;;;;;;;18.20;49.50;;;;;;4373588;32;19966;-40
2021/10/18 13:24:40;;;;;;;;;;;18.20;49.40;;;;;;4373241;32;20440;-40
2021/10/18 13:27:06;;;;;;;;;;;18.10;49.60;;;;;;4355955;32;19982;-39
2021/10/18 13:29:32;;;;;;;;;;;18.00;49.60;;;;;;4355733;32;19974;-39
2021/10/18 13:32:01;;;;;;;;;;;17.90;49.70;;;;;;4343613;32;20056;-41
2021/10/18 13:34:28;;;;;;;;;;;17.80;50.00;;;;;;4355478;32;20000;-42
2021/10/18 13:36:55;;;;;;;;;;;17.70;50.00;;;;;;4356049;32;19977;-41
2021/10/18 13:39:21;;;;;;;;;;;17.60;50.10;;;;;;4356041;32;19966;-41
2021/10/18 13:41:47;;;;;;;;;;;17.60;50.30;;;;;;4355467;32;19984;-39
2021/10/18 13:44:13;;;;;;;;;;;17.50;50.30;;;;;;4357040;32;19977;-40
2021/10/18 13:46:40;;;;;;;;;;;17.40;50.40;;;;;;4348375;32;19976;-40
2021/10/18 13:49:06;;;;;;;;;;;17.30;50.50;;;;;;4343959;33;20009;-39
2021/10/18 13:51:33;;;;;;;;;;;17.10;50.70;;;;;;4343741;33;19959;-38
2021/10/18 13:53:59;;;;;;;;;;;17.00;50.80;;;;;;4343750;33;19986;-38
2021/10/18 13:56:25;;;;;;;;;;;16.90;51.00;;;;;;4343962;33;19973;-39
2021/10/18 13:58:53;;;;;;;;;;;16.80;51.20;;;;;;4357612;32;20430;-38
2021/10/18 14:01:19;;;;;;;;;;;16.70;51.50;;;;;;4360699;32;20051;-38
2021/10/18 14:03:45;;;;;;;;;;;16.60;51.60;;;;;;4360966;32;19958;-40
2021/10/18 14:06:13;;;;;;;;;;;16.60;51.70;;;;;;4361331;32;19989;-40
2021/10/18 14:08:39;;;;;;;;;;;16.60;51.70;;;;;;4360915;32;19970;-39
2021/10/18 14:11:06;;;;;;;;;;;16.60;51.70;;;;;;4360816;32;20423;-39
2021/10/18 14:13:35;;;;;;;;;;;16.50;51.70;;;;;;4347034;32;20054;-38
2021/10/18 14:16:01;;;;;;;;;;;16.50;51.70;;;;;;4360888;32;19970;-39
2021/10/18 14:18:28;;;;;;;;;;;16.40;51.90;;;;;;4328687;33;19979;-38
2021/10/18 14:20:54;;;;;;;;;;;16.40;51.90;;;;;;4328732;33;19986;-39
2021/10/18 14:23:21;;;;;;;;;;;16.30;51.80;;;;;;4328939;33;19971;-39
2021/10/18 14:25:48;;;;;;;;;;;16.30;51.90;;;;;;4329453;33;20003;-38
2021/10/18 14:28:14;;;;;;;;;;;16.30;52.00;;;;;;4329155;33;19974;-38
2021/10/18 14:30:40;;;;;;;;;;;16.20;52.00;;;;;;4328525;33;20042;-38
2021/10/18 14:33:07;;;;;;;;;;;16.20;52.00;;;;;;4328377;33;20470;-37
2021/10/18 14:35:34;;;;;;;;;;;16.10;52.00;;;;;;4328610;33;19971;-39
2021/10/18 14:38:00;;;;;;;;;;;16.10;52.00;;;;;;4328462;33;19978;-39
2021/10/18 14:40:27;;;;;;;;;;;16.00;51.70;;;;;;4328388;33;20511;-38
2021/10/18 14:42:53;;;;;;;;;;;16.00;51.70;;;;;;4328354;33;20485;-38
2021/10/18 14:45:19;;;;;;;;;;;15.90;51.40;;;;;;4328735;33;20064;-38
2021/10/18 14:47:45;;;;;;;;;;;15.90;51.10;;;;;;4316424;33;19979;-39
2021/10/18 14:50:11;;;;;;;;;;;15.90;50.90;;;;;;4328393;33;19971;-39
2021/10/18 14:52:40;;;;;;;;;;;15.80;50.60;;;;;;4328217;33;20077;-39
2021/10/18 14:55:07;;;;;;;;;;;15.80;50.80;;;;;;4320858;32;20060;-39
2021/10/18 14:57:34;;;;;;;;;;;15.80;50.50;;;;;;4360303;32;19977;-40
2021/10/18 15:00:05;;;;;;;;;;;15.80;50.20;;;;;;4360337;32;20429;-40
2021/10/18 15:02:33;;;;;;;;;;;15.80;50.20;;;;;;4360526;32;19970;-40
2021/10/18 15:04:59;;;;;;;;;;;15.80;50.10;;;;;;4359950;32;20010;-37
2021/10/18 15:07:26;;;;;;;;;;;15.80;50.10;;;;;;4360100;32;20414;-39
2021/10/18 15:09:52;;;;;;;;;;;15.80;50.00;;;;;;4360118;32;19981;-40
2021/10/18 15:12:18;;;;;;;;;;;15.70;50.00;;;;;;4360630;32;20042;-38
2021/10/18 15:14:45;;;;;;;;;;;15.70;50.10;;;;;;4346324;32;19981;-39
2021/10/18 15:17:12;;;;;;;;;;;15.80;50.10;;;;;;4360151;32;20061;-38
2021/10/18 15:19:38;;;;;;;;;;;15.80;50.10;;;;;;4360131;32;19974;-38
2021/10/18 15:22:05;;;;;;;;;;;15.70;50.10;;;;;;4359777;32;19977;-38
2021/10/18 15:24:32;;;;;;;;;;;15.70;50.00;;;;;;4360267;32;19962;-39
2021/10/18 15:26:58;;;;;;;;;;;15.70;50.10;;;;;;4359843;32;20010;-38
2021/10/18 15:29:24;;;;;;;;;;;15.70;50.20;;;;;;4359640;32;19967;-38
2021/10/18 15:31:52;;;;;;;;;;;15.70;50.10;;;;;;4360054;32;20073;-39